»·PEaware :: N98GF KLAX-KHMT

N98GF :: KLAX-KHMT

FLIGHT INFORMATION

Flight Status: Arrived
Operator: Privately registered:
United States
More flights under this callsign
Pilot: Daniel B. (28719)
Aircraft: CESSNA 172 SKYHAWK
(C172)
More flights by this aircraft type
Origin: KLAX Los Angeles Intl
United States
Destination: KHMT Hemet-Ryan
United States
More flights between these airports :: More routes between these airports
Route:
File this flight plan on PilotEdge
Remarks:
Altitude:
(Current/Filed)
7,500ft
Speed:
(Current/Filed)
0kts
Departed: 12-Jan-21 08:38 AM
Arrived: 12-Jan-21 09:18 AM
Distance/Time
Traveled:
70nm/0:40
Distance/Time
To Go:
Arrived

Flight Plot

Page will automatically refresh every two minutes.

Flight plan parsing failed; only flown route is shown


Map Options




Map Legend


Flown Route
Filed Route
Departure Airport
Arrival Airport
Navaid (VOR, NDB)
Fix

Horizontal Profiles

Position Reports

Time Latitude Longitude Heading Altitude Ground
Speed
12-Jan-21 08:20 33.933634 -118.399303 174 111ft 0kts
12-Jan-21 08:21 33.933634 -118.399303 174 111ft 0kts
12-Jan-21 08:22 33.933634 -118.399303 174 111ft 0kts
12-Jan-21 08:23 33.933634 -118.399303 174 111ft 0kts
12-Jan-21 08:24 33.933634 -118.399303 174 111ft 0kts
12-Jan-21 08:25 33.933634 -118.399303 174 111ft 0kts
12-Jan-21 08:26 33.933634 -118.399303 174 111ft 0kts
12-Jan-21 08:27 33.933885 -118.398514 74 109ft 12kts
12-Jan-21 08:29 33.934743 -118.396301 83 106ft 22kts
12-Jan-21 08:30 33.935176 -118.392125 83 102ft 25kts
12-Jan-21 08:31 33.935637 -118.387579 82 99ft 27kts
12-Jan-21 08:32 33.936128 -118.383124 63 96ft 12kts
12-Jan-21 08:33 33.936358 -118.382877 18 96ft 0kts
12-Jan-21 08:34 33.936358 -118.382877 19 96ft 0kts
12-Jan-21 08:35 33.936358 -118.382877 19 96ft 0kts
12-Jan-21 08:36 33.936358 -118.382877 19 96ft 0kts
12-Jan-21 08:37 33.936808 -118.382851 354 96ft 15kts
12-Jan-21 08:38 33.936167 -118.394167 262 311ft 83kts
12-Jan-21 08:39 33.933543 -118.415575 260 1092ft 85kts
12-Jan-21 08:40 33.917857 -118.428401 170 1876ft 99kts
12-Jan-21 08:41 33.894733 -118.419410 157 2399ft 110kts
12-Jan-21 08:42 33.871139 -118.408025 158 2897ft 115kts
12-Jan-21 08:43 33.843829 -118.396970 160 3479ft 113kts
12-Jan-21 08:44 33.814198 -118.382599 156 3494ft 127kts
12-Jan-21 08:45 33.783075 -118.366799 157 3505ft 128kts
12-Jan-21 08:46 33.749815 -118.347252 151 3501ft 126kts
12-Jan-21 08:46 33.718567 -118.327569 152 3499ft 127kts
12-Jan-21 08:48 33.666028 -118.290677 145 4403ft 118kts
12-Jan-21 08:48 33.630457 -118.257516 123 5059ft 121kts
12-Jan-21 08:49 33.635363 -118.206774 66 5511ft 127kts
12-Jan-21 08:50 33.654727 -118.160447 57 5574ft 125kts
12-Jan-21 08:51 33.674682 -118.117662 58 5475ft 128kts
12-Jan-21 08:52 33.685804 -118.075604 86 5490ft 127kts
12-Jan-21 08:53 33.687281 -118.034691 82 5497ft 127kts
12-Jan-21 08:54 33.690146 -117.998942 84 5502ft 127kts
12-Jan-21 08:55 33.691143 -117.964790 86 5505ft 127kts
12-Jan-21 08:56 33.691828 -117.931186 85 5507ft 127kts
12-Jan-21 08:57 33.693141 -117.897641 84 5507ft 127kts
12-Jan-21 08:58 33.696341 -117.863059 82 5570ft 124kts
12-Jan-21 08:59 33.699216 -117.828770 80 5942ft 118kts
12-Jan-21 09:00 33.701919 -117.793855 85 6371ft 116kts
12-Jan-21 09:01 33.703234 -117.755885 82 6877ft 115kts
12-Jan-21 09:02 33.705404 -117.714580 86 7375ft 116kts
12-Jan-21 09:03 33.706073 -117.671191 88 7521ft 125kts
12-Jan-21 09:04 33.706765 -117.621364 83 7507ft 130kts
12-Jan-21 09:05 33.708992 -117.569011 84 7509ft 130kts
12-Jan-21 09:06 33.710650 -117.513505 84 7177ft 132kts
12-Jan-21 09:07 33.712893 -117.458198 84 6509ft 131kts
12-Jan-21 09:08 33.714508 -117.404292 86 5859ft 130kts
12-Jan-21 09:09 33.713226 -117.353150 99 5235ft 130kts
12-Jan-21 09:10 33.703052 -117.305083 109 4665ft 128kts
12-Jan-21 09:11 33.689141 -117.259019 99 4134ft 127kts
12-Jan-21 09:12 33.688646 -117.212903 82 3637ft 125kts
12-Jan-21 09:13 33.694557 -117.169570 76 3193ft 123kts
12-Jan-21 09:14 33.705098 -117.122817 76 2693ft 121kts
12-Jan-21 09:15 33.715702 -117.071753 79 2365ft 118kts
12-Jan-21 09:16 33.726624 -117.038908 62 1818ft 63kts
12-Jan-21 09:17 33.732582 -117.024340 133 1516ft 10kts
12-Jan-21 09:18 33.731590 -117.023371 127 1516ft 13kts
12-Jan-21 09:19 33.730669 -117.021652 322 1516ft 0kts

Navigation Log

Ident Type
Flight plan parsing failed, navigation log unavailable